Harrisonville, Illinois
Current Conditions -  °F | °C
As of 8:53 AM on Monday 22 Dec 2014 (Local Time) from KCPS Reporting Station
Light Rain Light Rain  
Wind Chill: 35°   Ceiling: 900
Heat Index: 42°   Visibility: 5mi
Dew Point: 40°   Wind: 13mph
Humidity: 92%   Direction: 140°SE
Pressure: 29.74"   Gusts: 24mph
Location:  38.2838°N, 90.3044°W
Report Text: KCPS 221453Z 14011G21KT 5SM -RA BR BKN009 OVC055 06/04 A2974 RMK AO2 SLP072 P0003 60011 T00560044 56019 $
Loading
Personal Weather Stations






























Interactive Weather Map New forecast layout! Learn more

10-Day Weather Forecast

Advertisements
Track Severe Weather on mobile